createdAt,value
2022-09-09T00:01:33.889Z,98698.99
2022-09-09T00:04:25.086Z,98704.11
2022-09-09T00:07:07.393Z,98706.47
2022-09-09T00:09:54.855Z,98703.91
2022-09-09T00:12:35.791Z,98702.33
2022-09-09T00:15:14.098Z,98701.77
2022-09-09T00:18:10.925Z,98700.48
2022-09-09T00:20:41.914Z,98708.59
2022-09-09T00:23:29.585Z,98708.63
2022-09-09T00:26:07.967Z,98710.41
2022-09-09T00:28:44.924Z,98710.27
2022-09-09T00:31:17.704Z,98714.35
2022-09-09T00:33:47.506Z,98716.21
2022-09-09T00:36:19.873Z,98713.22
2022-09-09T00:38:56.442Z,98715.11
2022-09-09T00:41:59.018Z,98718.44
2022-09-09T00:44:36.458Z,98719.13
2022-09-09T00:47:05.082Z,98715.09
2022-09-09T00:49:39.471Z,98717.74
2022-09-09T00:52:13.494Z,98723.79
2022-09-09T00:54:53.814Z,98726.05
2022-09-09T00:57:35.810Z,98729.14
2022-09-09T01:00:06.801Z,98728.45
2022-09-09T01:03:15.751Z,98731.79
2022-09-09T01:06:39.959Z,98733.95
2022-09-09T01:09:31.154Z,98733.31
2022-09-09T01:12:04.686Z,98733.27
2022-09-09T01:14:33.841Z,98733.71
2022-09-09T01:17:26.999Z,98735.27
2022-09-09T01:20:24.068Z,98746.63
2022-09-09T01:23:00.974Z,98744.30
2022-09-09T01:26:04.698Z,98747.38
2022-09-09T01:28:36.779Z,98746.77
2022-09-09T01:31:15.758Z,98750.67
2022-09-09T01:33:48.481Z,98752.16
2022-09-09T01:36:22.424Z,98754.42
2022-09-09T01:38:53.629Z,98753.66
2022-09-09T01:41:22.332Z,98755.31
2022-09-09T01:44:10.298Z,98757.42
2022-09-09T01:46:40.313Z,98759.75
2022-09-09T01:49:15.077Z,98758.09
2022-09-09T01:51:45.717Z,98761.85
2022-09-09T01:54:15.782Z,98767.98
2022-09-09T01:57:02.668Z,98770.35
2022-09-09T01:59:49.778Z,98772.45
2022-09-09T02:02:33.527Z,98778.66
2022-09-09T02:05:38.667Z,98778.29
2022-09-09T02:08:16.590Z,98782.56
2022-09-09T02:11:07.095Z,98788.14
2022-09-09T02:13:47.394Z,98791.30
2022-09-09T02:16:25.711Z,98795.54
2022-09-09T02:18:57.614Z,98797.14
2022-09-09T02:21:36.330Z,98799.99
2022-09-09T02:24:10.953Z,98797.72
2022-09-09T02:26:46.287Z,98797.63
2022-09-09T02:29:25.629Z,98796.46
2022-09-09T02:31:56.690Z,98798.27
2022-09-09T02:34:28.926Z,98800.11
2022-09-09T02:37:01.007Z,98800.98
2022-09-09T02:39:29.288Z,98804.92
2022-09-09T02:41:57.598Z,98807.91
2022-09-09T02:44:31.051Z,98807.35
2022-09-09T02:47:29.750Z,98812.03
2022-09-09T02:50:36.778Z,98811.66
2022-09-09T02:53:29.390Z,98818.73
2022-09-09T02:56:08.042Z,98818.10
2022-09-09T02:58:37.932Z,98822.60
2022-09-09T03:01:07.739Z,98818.46
2022-09-09T03:03:36.287Z,98818.96
2022-09-09T03:06:08.270Z,98816.50
2022-09-09T03:08:36.948Z,98817.11
2022-09-09T03:11:05.853Z,98821.09
2022-09-09T03:13:36.575Z,98827.98
2022-09-09T03:16:05.676Z,98828.84
2022-09-09T03:18:36.708Z,98829.45
2022-09-09T03:21:05.301Z,98833.13
2022-09-09T03:23:33.627Z,98827.34
2022-09-09T03:26:03.494Z,98829.26
2022-09-09T03:28:40.145Z,98824.85
2022-09-09T03:31:11.448Z,98829.33
2022-09-09T03:33:44.806Z,98831.33
2022-09-09T03:36:16.070Z,98832.60
2022-09-09T03:38:44.506Z,98833.13
2022-09-09T03:41:13.931Z,98836.02
2022-09-09T03:43:43.005Z,98837.59
2022-09-09T03:46:11.488Z,98839.95
2022-09-09T03:48:39.810Z,98839.38
2022-09-09T03:51:08.125Z,98846.06
2022-09-09T03:53:36.914Z,98848.23
2022-09-09T03:56:07.723Z,98852.17
2022-09-09T03:58:37.067Z,98853.66
2022-09-09T04:01:14.699Z,98854.89
2022-09-09T04:03:45.815Z,98852.72
2022-09-09T04:06:15.809Z,98852.77
2022-09-09T04:08:46.218Z,98850.15
2022-09-09T04:11:17.095Z,98853.27
2022-09-09T04:13:45.680Z,98857.60
2022-09-09T04:16:15.870Z,98856.36
2022-09-09T04:18:45.216Z,98865.05
2022-09-09T04:21:14.434Z,98869.05
2022-09-09T04:23:43.133Z,98874.11
2022-09-09T04:26:11.480Z,98873.14
2022-09-09T04:28:39.975Z,98869.40
2022-09-09T04:31:19.836Z,98867.51
2022-09-09T04:33:48.667Z,98866.54
2022-09-09T04:36:20.442Z,98867.08
2022-09-09T04:38:50.333Z,98866.25
2022-09-09T04:41:18.949Z,98870.97
2022-09-09T04:43:49.570Z,98873.15
2022-09-09T04:46:18.557Z,98871.84
2022-09-09T04:48:47.082Z,98874.36
2022-09-09T04:51:15.899Z,98868.33
2022-09-09T04:53:46.350Z,98869.62
2022-09-09T04:56:16.816Z,98868.14
2022-09-09T04:58:52.181Z,98871.30
2022-09-09T05:01:25.437Z,98873.30
2022-09-09T05:03:55.708Z,98869.70
2022-09-09T05:06:25.129Z,98875.77
2022-09-09T05:08:57.405Z,98877.70
2022-09-09T05:11:30.257Z,98876.95
2022-09-09T05:14:21.598Z,98881.14
2022-09-09T05:16:51.119Z,98881.36
2022-09-09T05:19:21.018Z,98880.69
2022-09-09T05:21:51.250Z,98883.16
2022-09-09T05:24:24.387Z,98881.44
2022-09-09T05:26:54.875Z,98879.58
2022-09-09T05:29:23.108Z,98874.73
2022-09-09T05:31:51.362Z,98874.79
2022-09-09T05:34:21.895Z,98875.14
2022-09-09T05:36:51.037Z,98873.71
2022-09-09T05:39:19.586Z,98875.11
2022-09-09T05:41:47.895Z,98870.23
2022-09-09T05:44:16.289Z,98869.10
2022-09-09T05:46:45.878Z,98872.28
2022-09-09T05:49:16.817Z,98875.83
2022-09-09T05:51:45.473Z,98881.44
2022-09-09T05:54:16.663Z,98882.96
2022-09-09T05:56:51.792Z,98882.45
2022-09-09T05:59:20.958Z,98885.29
2022-09-09T06:01:49.583Z,98886.92
2022-09-09T06:04:28.350Z,98887.87
2022-09-09T06:06:56.585Z,98889.31
2022-09-09T06:09:25.098Z,98890.52
2022-09-09T06:11:53.362Z,98891.85
2022-09-09T06:14:23.026Z,98894.36
2022-09-09T06:16:53.017Z,98896.80
2022-09-09T06:19:27.582Z,98896.75
2022-09-09T06:21:58.126Z,98892.44
2022-09-09T06:24:26.546Z,98890.63
2022-09-09T06:26:55.157Z,98896.80
2022-09-09T06:29:26.447Z,98897.13
2022-09-09T06:31:54.752Z,98896.17
2022-09-09T06:34:24.823Z,98899.33
2022-09-09T06:36:58.853Z,98899.48
2022-09-09T06:39:28.207Z,98903.17
2022-09-09T06:41:58.970Z,98903.92
2022-09-09T06:44:56.122Z,98901.77
2022-09-09T06:47:31.260Z,98904.67
2022-09-09T06:50:00.010Z,98896.62
2022-09-09T06:52:29.629Z,98903.79
2022-09-09T06:54:59.937Z,98904.53
2022-09-09T06:57:36.931Z,98905.45
2022-09-09T07:00:09.301Z,98902.73
2022-09-09T07:02:40.778Z,98901.39
2022-09-09T07:05:10.096Z,98904.55
2022-09-09T07:07:38.379Z,98909.81
2022-09-09T07:10:07.033Z,98914.30
2022-09-09T07:12:35.788Z,98918.64
2022-09-09T07:15:05.295Z,98919.91
2022-09-09T07:17:33.597Z,98918.94
2022-09-09T07:20:04.943Z,98923.89
2022-09-09T07:22:34.686Z,98921.89
2022-09-09T07:25:04.682Z,98921.64
2022-09-09T07:27:32.958Z,98920.60
2022-09-09T07:30:01.186Z,98923.05
2022-09-09T07:32:31.538Z,98921.02
2022-09-09T07:34:59.786Z,98916.85
2022-09-09T07:37:28.638Z,98917.71
2022-09-09T07:39:57.134Z,98917.84
2022-09-09T07:42:26.270Z,98918.87
2022-09-09T07:44:56.225Z,98915.80
2022-09-09T07:47:26.371Z,98923.47
2022-09-09T07:49:54.621Z,98918.67
2022-09-09T07:52:27.772Z,98923.55
2022-09-09T07:54:58.417Z,98918.77
2022-09-09T07:57:27.092Z,98920.86
2022-09-09T07:59:57.115Z,98924.05
2022-09-09T08:02:26.709Z,98921.29
2022-09-09T08:04:54.931Z,98925.91
2022-09-09T08:07:24.597Z,98928.37
2022-09-09T08:09:56.786Z,98933.45
2022-09-09T08:12:29.085Z,98930.98
2022-09-09T08:14:57.896Z,98930.30
2022-09-09T08:17:28.968Z,98931.35
2022-09-09T08:19:58.433Z,98938.99
2022-09-09T08:22:28.985Z,98939.86
2022-09-09T08:24:57.450Z,98942.63
2022-09-09T08:27:26.787Z,98942.48
2022-09-09T08:29:55.377Z,98944.48
2022-09-09T08:32:24.994Z,98948.44
2022-09-09T08:34:54.618Z,98945.77
2022-09-09T08:37:25.019Z,98941.36
2022-09-09T08:39:55.346Z,98944.92
2022-09-09T08:42:42.174Z,98946.70
2022-09-09T08:45:47.723Z,98949.92
2022-09-09T08:48:22.083Z,98943.73
2022-09-09T08:50:53.266Z,98945.02
2022-09-09T08:53:32.773Z,98947.76
2022-09-09T08:56:09.698Z,98951.21
2022-09-09T08:58:58.428Z,98952.26
2022-09-09T09:01:46.153Z,98953.21
2022-09-09T09:04:28.690Z,98954.38
2022-09-09T09:07:18.765Z,98955.55
2022-09-09T09:10:41.719Z,98952.31
2022-09-09T09:13:18.261Z,98950.14
2022-09-09T09:15:54.376Z,98949.82
2022-09-09T09:18:22.891Z,98948.14
2022-09-09T09:20:59.798Z,98948.94
2022-09-09T09:23:42.537Z,98951.35
2022-09-09T09:26:14.607Z,98955.45
2022-09-09T09:28:44.356Z,98961.43
2022-09-09T09:31:16.385Z,98961.16
2022-09-09T09:33:51.588Z,98961.78
2022-09-09T09:36:26.154Z,98963.10
2022-09-09T09:41:50.000Z,98956.45
2022-09-09T09:44:33.406Z,98952.05
2022-09-09T09:47:18.215Z,98952.44
2022-09-09T09:50:00.944Z,98948.86
2022-09-09T09:52:33.389Z,98947.55
2022-09-09T09:55:08.339Z,98947.45
2022-09-09T09:57:37.754Z,98946.08
2022-09-09T10:00:17.903Z,98942.17
2022-09-09T10:02:53.032Z,98940.02
2022-09-09T10:05:36.143Z,98943.35
2022-09-09T10:08:10.466Z,98943.38
2022-09-09T10:10:53.107Z,98944.39
2022-09-09T10:13:45.999Z,98944.89
2022-09-09T10:16:23.141Z,98943.77
2022-09-09T10:19:18.001Z,98944.68
2022-09-09T10:22:17.625Z,98951.48
2022-09-09T10:25:00.748Z,98948.17
2022-09-09T10:27:38.026Z,98944.84
2022-09-09T10:30:18.517Z,98945.73
2022-09-09T10:32:53.435Z,98942.89
2022-09-09T10:35:27.595Z,98944.10
2022-09-09T10:38:04.311Z,98942.14
2022-09-09T10:40:49.886Z,98939.05
2022-09-09T10:44:00.308Z,98937.60
2022-09-09T10:46:32.020Z,98941.05
2022-09-09T10:49:38.258Z,98944.41
2022-09-09T10:52:29.813Z,98948.38
2022-09-09T10:55:29.914Z,98947.86
2022-09-09T10:58:01.672Z,98950.45
2022-09-09T11:00:41.764Z,98942.16
2022-09-09T11:03:21.175Z,98941.34
2022-09-09T11:06:20.734Z,98939.63
2022-09-09T11:08:53.779Z,98937.83
2022-09-09T11:11:35.154Z,98938.48
2022-09-09T11:14:13.626Z,98942.88
2022-09-09T11:17:05.156Z,98949.86
2022-09-09T11:19:41.563Z,98951.17
2022-09-09T11:22:35.863Z,98951.63
2022-09-09T11:25:35.363Z,98952.01
2022-09-09T11:29:00.451Z,98944.55
2022-09-09T11:31:53.935Z,98938.46
2022-09-09T11:34:48.616Z,98943.55
2022-09-09T11:37:17.178Z,98942.94
2022-09-09T11:39:53.128Z,98941.48
2022-09-09T11:42:25.566Z,98942.09
2022-09-09T11:44:56.122Z,98941.92
2022-09-09T11:47:32.925Z,98940.32
2022-09-09T11:50:33.247Z,98943.59
2022-09-09T11:53:13.659Z,98942.42
2022-09-09T11:55:41.937Z,98936.05
2022-09-09T11:58:12.829Z,98934.55
2022-09-09T12:00:45.601Z,98934.01
2022-09-09T12:03:41.343Z,98935.73
2022-09-09T12:06:12.604Z,98937.30
2022-09-09T12:08:46.567Z,98939.69
2022-09-09T12:11:28.637Z,98942.77
2022-09-09T12:14:00.733Z,98941.19
2022-09-09T12:16:35.603Z,98938.15
2022-09-09T12:19:22.071Z,98938.55
2022-09-09T12:22:05.451Z,98936.89
2022-09-09T12:24:48.347Z,98937.27
2022-09-09T12:27:27.091Z,98938.30
2022-09-09T12:30:16.649Z,98939.23
2022-09-09T12:32:47.583Z,98936.13
2022-09-09T12:35:28.072Z,98934.50
2022-09-09T12:38:04.494Z,98935.88
2022-09-09T12:40:36.467Z,98934.16
2022-09-09T12:43:22.637Z,98935.16
2022-09-09T12:45:58.793Z,98928.49
2022-09-09T12:48:34.084Z,98927.27
2022-09-09T12:51:03.026Z,98928.14
2022-09-09T12:53:33.090Z,98926.17
2022-09-09T12:56:11.286Z,98923.05
2022-09-09T12:58:41.486Z,98928.38
2022-09-09T13:01:23.200Z,98920.85
2022-09-09T13:03:52.163Z,98923.35
2022-09-09T13:06:29.099Z,98932.56
2022-09-09T13:09:00.293Z,98935.77
2022-09-09T13:11:43.347Z,98935.27
2022-09-09T13:14:31.289Z,98934.05
2022-09-09T13:17:01.697Z,98926.70
2022-09-09T13:19:46.566Z,98923.91
2022-09-09T13:22:14.768Z,98924.15
2022-09-09T13:24:43.819Z,98913.80
2022-09-09T13:27:29.292Z,98913.73
2022-09-09T13:29:58.046Z,98916.50
2022-09-09T13:32:28.097Z,98911.49
2022-09-09T13:35:02.663Z,98912.13
2022-09-09T13:37:42.370Z,98911.56
2022-09-09T13:40:20.590Z,98907.76
2022-09-09T13:42:53.691Z,98902.55
2022-09-09T13:45:25.578Z,98908.16
2022-09-09T13:47:56.674Z,98903.84
2022-09-09T13:50:30.727Z,98901.44
2022-09-09T13:52:59.836Z,98892.77
2022-09-09T13:55:29.509Z,98890.20
2022-09-09T13:58:03.828Z,98889.83
2022-09-09T14:00:35.119Z,98891.98
2022-09-09T14:03:03.598Z,98894.05
2022-09-09T14:05:35.004Z,98896.34
2022-09-09T14:08:07.698Z,98898.14
2022-09-09T14:10:39.081Z,98894.71
2022-09-09T14:13:07.325Z,98895.20
2022-09-09T14:15:35.602Z,98894.30
2022-09-09T14:18:04.015Z,98886.99
2022-09-09T14:20:33.021Z,98888.04
2022-09-09T14:23:03.515Z,98885.02
2022-09-09T14:25:32.744Z,98885.14
2022-09-09T14:28:01.539Z,98882.84
2022-09-09T14:30:29.805Z,98882.77
2022-09-09T14:32:58.296Z,98877.70
2022-09-09T14:35:26.547Z,98878.11
2022-09-09T14:37:54.757Z,98879.34
2022-09-09T14:40:23.110Z,98878.33
2022-09-09T14:42:51.335Z,98881.35
2022-09-09T14:45:19.605Z,98879.27
2022-09-09T14:47:48.500Z,98875.42
2022-09-09T14:50:16.718Z,98870.17
2022-09-09T14:52:45.411Z,98873.38
2022-09-09T14:55:14.199Z,98867.05
2022-09-09T14:57:43.531Z,98870.38
2022-09-09T15:00:13.537Z,98871.98
2022-09-09T15:02:41.884Z,98872.30
2022-09-09T15:05:10.521Z,98871.48
2022-09-09T15:07:39.353Z,98874.54
2022-09-09T15:10:08.014Z,98873.49
2022-09-09T15:12:36.337Z,98878.02
2022-09-09T15:17:48.529Z,98871.83
2022-09-09T15:20:17.798Z,98871.91
2022-09-09T15:22:46.023Z,98872.83
2022-09-09T15:25:14.453Z,98874.92
2022-09-09T15:27:42.854Z,98871.77
2022-09-09T15:30:11.879Z,98873.42
2022-09-09T15:32:40.769Z,98877.48
2022-09-09T15:35:09.081Z,98875.14
2022-09-09T15:37:37.331Z,98873.24
2022-09-09T15:40:06.121Z,98868.35
2022-09-09T15:42:34.354Z,98869.02
2022-09-09T15:45:02.521Z,98864.16
2022-09-09T15:47:30.846Z,98865.03
2022-09-09T15:49:58.994Z,98865.82
2022-09-09T15:52:27.160Z,98867.20
2022-09-09T15:54:55.923Z,98869.74
2022-09-09T15:57:24.168Z,98872.79
2022-09-09T15:59:52.358Z,98874.36
2022-09-09T16:02:20.696Z,98872.09
2022-09-09T16:04:48.963Z,98871.52
2022-09-09T16:07:17.176Z,98871.73
2022-09-09T16:09:45.513Z,98875.10
2022-09-09T16:12:14.301Z,98875.20
2022-09-09T16:14:42.985Z,98870.45
2022-09-09T16:17:12.281Z,98874.20
2022-09-09T16:19:40.757Z,98874.30
2022-09-09T16:22:09.564Z,98877.18
2022-09-09T16:24:37.877Z,98884.15
2022-09-09T16:27:06.320Z,98884.58
2022-09-09T16:29:34.647Z,98888.81
2022-09-09T16:32:04.398Z,98891.19
2022-09-09T16:34:34.652Z,98895.67
2022-09-09T16:37:03.263Z,98895.08
2022-09-09T16:39:31.789Z,98892.85
2022-09-09T16:42:00.994Z,98890.52
2022-09-09T16:44:29.346Z,98887.77
2022-09-09T16:47:00.731Z,98889.55
2022-09-09T16:49:30.029Z,98888.95
2022-09-09T16:52:01.098Z,98887.77
2022-09-09T16:54:30.184Z,98886.52
2022-09-09T16:57:00.580Z,98886.76
2022-09-09T16:59:29.530Z,98885.99
2022-09-09T17:01:57.909Z,98889.94
2022-09-09T17:04:31.991Z,98888.11
2022-09-09T17:07:01.777Z,98887.91
2022-09-09T17:09:30.455Z,98885.45
2022-09-09T17:12:01.073Z,98888.31
2022-09-09T17:14:32.270Z,98889.86
2022-09-09T17:17:24.703Z,98893.07
2022-09-09T17:19:52.287Z,98892.90
2022-09-09T17:22:24.716Z,98892.25
2022-09-09T17:24:53.273Z,98893.82
2022-09-09T17:27:21.662Z,98893.66
2022-09-09T17:29:49.999Z,98897.14
2022-09-09T17:32:19.542Z,98899.86
2022-09-09T17:34:47.790Z,98900.64
2022-09-09T17:37:15.995Z,98902.27
2022-09-09T17:39:44.394Z,98907.89
2022-09-09T17:42:12.638Z,98909.45
2022-09-09T17:44:42.870Z,98917.45
2022-09-09T17:47:11.202Z,98914.85
2022-09-09T17:49:39.567Z,98916.44
2022-09-09T17:52:07.782Z,98923.05
2022-09-09T17:54:36.702Z,98926.23
2022-09-09T17:57:05.186Z,98924.14
2022-09-09T17:59:33.403Z,98927.90
2022-09-09T18:02:02.060Z,98930.05
2022-09-09T18:04:30.478Z,98928.58
2022-09-09T18:06:59.412Z,98929.66
2022-09-09T18:09:28.206Z,98930.10
2022-09-09T18:11:58.860Z,98936.45
2022-09-09T18:14:31.323Z,98937.78
2022-09-09T18:17:01.360Z,98937.35
2022-09-09T18:19:33.029Z,98936.48
2022-09-09T18:22:05.245Z,98941.61
2022-09-09T18:24:34.179Z,98944.50
2022-09-09T18:27:04.173Z,98941.52
2022-09-09T18:29:33.367Z,98943.47
2022-09-09T18:32:01.834Z,98950.43
2022-09-09T18:34:31.025Z,98947.60
2022-09-09T18:36:59.509Z,98949.69
2022-09-09T18:39:29.824Z,98949.56
2022-09-09T18:42:01.638Z,98957.09
2022-09-09T18:44:33.949Z,98959.36
2022-09-09T18:47:03.779Z,98952.75
2022-09-09T18:49:33.815Z,98947.44
2022-09-09T18:52:04.718Z,98944.82
2022-09-09T18:54:34.454Z,98941.35
2022-09-09T18:57:02.815Z,98938.98
2022-09-09T18:59:31.524Z,98939.48
2022-09-09T19:02:01.070Z,98938.83
2022-09-09T19:04:33.075Z,98941.98
2022-09-09T19:07:01.696Z,98946.42
2022-09-09T19:09:33.842Z,98946.81
2022-09-09T19:12:02.950Z,98948.45
2022-09-09T19:14:31.579Z,98950.19
2022-09-09T19:17:01.353Z,98951.59
2022-09-09T19:19:32.527Z,98950.66
2022-09-09T19:22:03.741Z,98955.67
2022-09-09T19:24:33.727Z,98955.70
2022-09-09T19:27:04.566Z,98958.00
2022-09-09T19:29:39.601Z,98955.05
2022-09-09T19:35:06.084Z,98953.32
2022-09-09T19:37:34.929Z,98958.11
2022-09-09T19:40:06.959Z,98960.03
2022-09-09T19:42:35.283Z,98961.41
2022-09-09T19:45:05.171Z,98960.05
2022-09-09T19:47:34.153Z,98962.25
2022-09-09T19:50:05.867Z,98965.48
2022-09-09T19:52:35.305Z,98966.80
2022-09-09T19:55:03.968Z,98962.72
2022-09-09T19:57:32.490Z,98963.06
2022-09-09T20:00:01.079Z,98961.27
2022-09-09T20:02:29.656Z,98967.21
2022-09-09T20:04:58.666Z,98966.40
2022-09-09T20:07:27.113Z,98966.15
2022-09-09T20:09:55.475Z,98963.06
2022-09-09T20:12:23.850Z,98963.52
2022-09-09T20:14:52.166Z,98963.55
2022-09-09T20:17:21.523Z,98958.17
2022-09-09T20:19:49.753Z,98951.95
2022-09-09T20:22:17.991Z,98953.08
2022-09-09T20:24:46.464Z,98948.21
2022-09-09T20:27:14.715Z,98952.81
2022-09-09T20:29:43.092Z,98950.51
2022-09-09T20:32:12.359Z,98944.11
2022-09-09T20:34:43.189Z,98939.01
2022-09-09T20:37:18.027Z,98941.30
2022-09-09T20:39:46.662Z,98943.88
2022-09-09T20:42:15.482Z,98941.89
2022-09-09T20:44:43.814Z,98944.31
2022-09-09T20:47:13.183Z,98945.30
2022-09-09T20:49:41.485Z,98945.59
2022-09-09T20:52:11.753Z,98951.77
2022-09-09T20:54:41.023Z,98954.79
2022-09-09T20:57:09.641Z,98958.44
2022-09-09T20:59:38.114Z,98959.81
2022-09-09T21:02:06.865Z,98965.14
2022-09-09T21:04:38.587Z,98966.30
2022-09-09T21:07:07.679Z,98963.46
2022-09-09T21:09:36.377Z,98957.62
2022-09-09T21:12:04.802Z,98952.45
2022-09-09T21:14:33.197Z,98947.71
2022-09-09T21:17:03.359Z,98945.86
2022-09-09T21:19:31.634Z,98949.73
2022-09-09T21:22:00.397Z,98950.14
2022-09-09T21:24:29.288Z,98951.71
2022-09-09T21:26:57.530Z,98957.81
2022-09-09T21:29:25.821Z,98962.67
2022-09-09T21:31:55.858Z,98963.16
2022-09-09T21:34:24.044Z,98963.43
2022-09-09T21:36:52.274Z,98973.11
2022-09-09T21:39:20.474Z,98976.69
2022-09-09T21:41:48.738Z,98974.02
2022-09-09T21:44:17.042Z,98969.47
2022-09-09T21:46:45.338Z,98967.19
2022-09-09T21:49:14.202Z,98968.37
2022-09-09T21:51:42.542Z,98965.77
2022-09-09T21:54:10.706Z,98958.23
2022-09-09T21:56:39.663Z,98952.98
2022-09-09T21:59:08.233Z,98952.16
2022-09-09T22:01:36.680Z,98951.52
2022-09-09T22:04:05.139Z,98951.95
2022-09-09T22:06:33.979Z,98950.15
2022-09-09T22:09:03.992Z,98953.41
2022-09-09T22:11:32.201Z,98950.11
2022-09-09T22:14:01.701Z,98954.38
2022-09-09T22:16:29.975Z,98956.71
2022-09-09T22:19:00.374Z,98945.92
2022-09-09T22:21:30.839Z,98939.42
2022-09-09T22:24:01.959Z,98941.39
2022-09-09T22:26:33.335Z,98945.22
2022-09-09T22:29:02.121Z,98945.58
2022-09-09T22:31:31.570Z,98941.46
2022-09-09T22:33:59.831Z,98936.03
2022-09-09T22:36:28.141Z,98939.55
2022-09-09T22:38:56.851Z,98940.00
2022-09-09T22:41:25.368Z,98939.04
2022-09-09T22:43:53.729Z,98935.09
2022-09-09T22:46:23.881Z,98932.00
2022-09-09T22:48:52.170Z,98928.62
2022-09-09T22:51:20.553Z,98925.38
2022-09-09T22:53:48.952Z,98922.05
2022-09-09T22:56:19.846Z,98922.46
2022-09-09T22:58:55.414Z,98920.39
2022-09-09T23:01:25.486Z,98911.69
2022-09-09T23:03:59.521Z,98906.80
2022-09-09T23:06:29.029Z,98902.95
2022-09-09T23:09:02.733Z,98902.95
2022-09-09T23:11:34.794Z,98899.40
2022-09-09T23:14:06.677Z,98894.46
2022-09-09T23:16:39.807Z,98888.63
2022-09-09T23:19:10.950Z,98886.13
2022-09-09T23:21:40.622Z,98886.24
2022-09-09T23:24:12.037Z,98880.92
2022-09-09T23:26:41.881Z,98876.28
2022-09-09T23:29:14.459Z,98874.34
2022-09-09T23:31:45.077Z,98874.52
2022-09-09T23:34:14.358Z,98867.98
2022-09-09T23:36:42.818Z,98868.55
2022-09-09T23:39:12.176Z,98865.52
2022-09-09T23:41:41.190Z,98856.74
2022-09-09T23:44:12.886Z,98857.34
2022-09-09T23:46:41.788Z,98857.28
2022-09-09T23:49:10.142Z,98855.91
2022-09-09T23:51:38.466Z,98859.56
2022-09-09T23:54:07.395Z,98859.84
2022-09-09T23:56:39.338Z,98861.64
2022-09-09T23:59:08.539Z,98865.69
